Time;durP1;ratioP1;P1;durP2;ratioP2;P2;SDS_P1;SDS_P2;PMS_P1;PMS_P2;Temp;Humidity;BMP_temperature;BMP_pressure;BME280_temperature;BME280_humidity;BME280_pressure;Samples;Min_cycle;Max_cycle;Signal;HPM_P1;HPM_P2
2022/05/11 00:01:42;;;;;;;11.77;5.50;;;14.70;99.90;;;;;;5033399;28;20498;-74
2022/05/11 00:04:09;;;;;;;12.15;5.07;;;14.70;99.90;;;;;;5033638;28;20052;-75
2022/05/11 00:06:35;;;;;;;9.38;5.60;;;14.70;99.90;;;;;;5033597;28;20047;-74
2022/05/11 00:09:02;;;;;;;9.45;5.05;;;14.70;99.90;;;;;;5017324;28;20124;-74
2022/05/11 00:11:29;;;;;;;10.50;5.38;;;14.60;99.90;;;;;;5016958;28;20037;-75
2022/05/11 00:13:55;;;;;;;10.60;5.40;;;14.60;99.90;;;;;;5033451;28;20099;-75
2022/05/11 00:16:21;;;;;;;11.10;5.63;;;14.50;99.90;;;;;;5033640;28;20404;-75
2022/05/11 00:18:47;;;;;;;11.68;5.03;;;14.50;99.90;;;;;;5033290;28;20037;-75
2022/05/11 00:21:12;;;;;;;9.73;5.38;;;14.60;99.90;;;;;;5033179;28;20468;-74
2022/05/11 00:23:39;;;;;;;9.00;5.07;;;14.60;99.90;;;;;;5033220;28;20052;-74
2022/05/11 00:26:05;;;;;;;11.00;5.78;;;14.60;99.90;;;;;;5033036;28;20070;-75
2022/05/11 00:28:31;;;;;;;10.63;5.32;;;14.60;99.90;;;;;;5016696;28;20041;-75
2022/05/11 00:30:56;;;;;;;8.68;5.53;;;14.60;99.90;;;;;;5033127;28;20135;-75
2022/05/11 00:33:22;;;;;;;10.13;5.80;;;14.60;99.90;;;;;;5033050;28;20121;-75
2022/05/11 00:35:50;;;;;;;9.85;5.30;;;14.60;99.90;;;;;;5033059;28;20091;-75
2022/05/11 00:38:18;;;;;;;11.68;5.50;;;14.60;99.90;;;;;;5032089;28;20561;-75
2022/05/11 00:40:50;;;;;;;9.90;5.35;;;14.60;99.90;;;;;;5032943;28;20095;-75
2022/05/11 00:43:29;;;;;;;12.85;5.97;;;14.60;99.90;;;;;;5032830;28;20128;-74
2022/05/11 00:46:11;;;;;;;9.40;5.32;;;14.60;99.90;;;;;;5033011;28;20445;-75
2022/05/11 00:51:23;;;;;;;10.25;5.45;;;14.60;99.90;;;;;;5032688;28;20124;-75
2022/05/11 00:53:53;;;;;;;11.30;5.75;;;14.60;99.90;;;;;;5016537;28;20029;-75
2022/05/11 00:56:20;;;;;;;10.15;5.22;;;14.60;99.90;;;;;;5032663;28;20049;-75
2022/05/11 00:58:55;;;;;;;11.07;4.53;;;14.60;99.90;;;;;;5032678;28;20095;-74
2022/05/11 01:01:20;;;;;;;8.65;5.15;;;14.60;99.90;;;;;;5016153;28;20437;-74
2022/05/11 01:04:01;;;;;;;8.65;4.60;;;14.60;99.90;;;;;;5032176;28;20103;-74
2022/05/11 01:06:28;;;;;;;9.90;4.78;;;14.60;99.90;;;;;;5032432;28;20092;-74
2022/05/11 01:08:54;;;;;;;9.52;4.78;;;14.60;99.90;;;;;;5032480;28;20049;-74
2022/05/11 01:11:19;;;;;;;8.50;4.72;;;14.60;99.90;;;;;;5032359;28;20034;-74
2022/05/11 01:13:46;;;;;;;9.02;4.65;;;14.60;99.90;;;;;;5032259;28;20097;-74
2022/05/11 01:16:12;;;;;;;8.38;4.50;;;14.60;99.90;;;;;;5032198;28;20052;-75
2022/05/11 01:18:39;;;;;;;7.22;4.10;;;14.60;99.90;;;;;;5032517;28;20045;-75
2022/05/11 01:21:07;;;;;;;8.45;4.22;;;14.60;99.90;;;;;;5016074;28;20045;-74
2022/05/11 01:23:45;;;;;;;11.35;4.55;;;14.60;99.90;;;;;;5016045;28;20037;-74
2022/05/11 01:26:15;;;;;;;9.18;4.55;;;14.60;99.90;;;;;;5032157;28;20041;-75
2022/05/11 01:28:44;;;;;;;10.75;4.25;;;14.60;99.90;;;;;;5032150;28;20037;-74
2022/05/11 01:31:11;;;;;;;8.23;4.47;;;14.50;99.90;;;;;;5015905;28;20040;-74
2022/05/11 01:33:40;;;;;;;11.95;4.57;;;14.50;99.90;;;;;;5015898;28;20517;-75
2022/05/11 01:36:25;;;;;;;8.90;4.80;;;14.50;99.90;;;;;;5015669;28;20048;-75
2022/05/11 01:39:03;;;;;;;8.52;4.03;;;14.50;99.90;;;;;;5032026;28;20490;-75
2022/05/11 01:41:37;;;;;;;8.35;4.35;;;14.40;99.90;;;;;;5015785;28;20048;-75
2022/05/11 01:44:05;;;;;;;9.23;4.40;;;14.40;99.90;;;;;;5031954;28;20048;-75
2022/05/11 01:46:32;;;;;;;8.48;4.60;;;14.40;99.90;;;;;;5032070;28;20041;-75
2022/05/11 01:48:57;;;;;;;11.48;5.00;;;14.40;99.90;;;;;;5031953;28;20040;-74
2022/05/11 01:51:23;;;;;;;10.90;5.00;;;14.40;99.90;;;;;;5038178;28;20037;-74
2022/05/11 01:53:49;;;;;;;9.45;4.47;;;14.40;99.90;;;;;;5038970;28;20041;-74
2022/05/11 01:56:16;;;;;;;8.63;5.00;;;14.40;99.90;;;;;;5021941;28;20560;-74
2022/05/11 01:58:42;;;;;;;11.25;4.40;;;14.40;99.90;;;;;;5038471;28;20069;-74
2022/05/11 02:01:08;;;;;;;8.82;4.45;;;14.30;99.90;;;;;;5038208;28;20064;-74
2022/05/11 02:03:34;;;;;;;10.18;4.25;;;14.40;99.90;;;;;;5021762;28;20517;-74
2022/05/11 02:08:44;;;;;;;8.38;4.65;;;14.40;99.90;;;;;;5038410;28;20041;-75
2022/05/11 02:11:12;;;;;;;9.35;4.85;;;14.30;99.90;;;;;;5038598;28;20398;-74
2022/05/11 02:13:37;;;;;;;8.82;4.65;;;14.30;99.90;;;;;;5021642;28;20064;-74
2022/05/11 02:16:04;;;;;;;9.23;4.43;;;14.30;99.90;;;;;;5038325;28;20041;-74
2022/05/11 02:18:30;;;;;;;9.50;4.45;;;14.30;99.90;;;;;;5038275;28;20063;-74
2022/05/11 02:20:56;;;;;;;8.63;4.45;;;14.30;99.90;;;;;;5038193;28;20045;-74
2022/05/11 02:23:23;;;;;;;8.10;4.40;;;14.30;99.90;;;;;;5038099;28;20076;-74
2022/05/11 02:25:50;;;;;;;8.52;4.60;;;14.30;99.90;;;;;;5021679;28;20132;-74
2022/05/11 02:28:17;;;;;;;8.35;4.28;;;14.30;99.90;;;;;;5038409;28;20041;-74
2022/05/11 02:30:43;;;;;;;11.38;4.78;;;14.30;99.90;;;;;;5035211;28;20086;-74
2022/05/11 02:33:09;;;;;;;8.10;4.40;;;14.30;99.90;;;;;;5057828;28;20041;-74
2022/05/11 02:35:36;;;;;;;9.38;4.50;;;14.30;99.90;;;;;;5057429;28;20119;-74
2022/05/11 02:38:05;;;;;;;8.25;4.07;;;14.30;99.90;;;;;;5058018;28;20508;-75
2022/05/11 02:40:34;;;;;;;8.63;4.50;;;14.20;99.90;;;;;;5058129;28;20051;-74
2022/05/11 02:43:01;;;;;;;9.40;4.25;;;14.20;99.90;;;;;;5058038;28;20493;-75
2022/05/11 02:45:27;;;;;;;7.40;4.03;;;14.20;99.90;;;;;;5041596;28;20488;-74
2022/05/11 02:47:54;;;;;;;10.07;5.03;;;14.20;99.90;;;;;;5041282;28;20044;-74
2022/05/11 02:50:23;;;;;;;8.50;4.00;;;14.20;99.90;;;;;;5041308;28;20041;-74
2022/05/11 02:52:49;;;;;;;7.80;3.60;;;14.20;99.90;;;;;;5041242;28;20075;-74
2022/05/11 02:55:15;;;;;;;8.35;4.03;;;14.20;99.90;;;;;;5041262;28;20076;-75
2022/05/11 02:57:41;;;;;;;9.25;4.07;;;14.20;99.90;;;;;;5041551;28;20067;-74
2022/05/11 03:00:10;;;;;;;8.00;4.10;;;14.20;99.90;;;;;;5041012;28;20032;-75
2022/05/11 03:02:35;;;;;;;8.25;4.15;;;14.20;99.90;;;;;;5054189;28;20049;-74
2022/05/11 03:05:02;;;;;;;8.70;4.15;;;14.30;99.90;;;;;;5054939;28;20397;-74
2022/05/11 03:07:27;;;;;;;10.13;4.70;;;14.20;99.90;;;;;;5038040;28;20112;-74
2022/05/11 03:09:53;;;;;;;11.10;4.13;;;14.20;99.90;;;;;;5054672;28;20041;-74
2022/05/11 03:12:22;;;;;;;8.65;4.80;;;14.20;99.90;;;;;;5037904;28;20037;-74
2022/05/11 03:14:48;;;;;;;8.18;4.40;;;14.20;99.90;;;;;;5054430;28;20033;-74
2022/05/11 03:17:14;;;;;;;10.02;4.50;;;14.20;99.90;;;;;;5054762;28;20384;-74
2022/05/11 03:19:40;;;;;;;9.70;4.43;;;14.20;99.90;;;;;;5054449;28;20040;-75
2022/05/11 03:22:06;;;;;;;8.75;4.50;;;14.20;99.90;;;;;;5054630;28;20045;-74
2022/05/11 03:24:31;;;;;;;11.07;4.63;;;14.30;99.90;;;;;;5037826;28;20131;-74
2022/05/11 03:26:57;;;;;;;10.30;4.60;;;14.20;99.90;;;;;;5054207;28;20045;-74
2022/05/11 03:29:22;;;;;;;9.93;4.68;;;14.30;99.90;;;;;;5037601;28;20068;-74
2022/05/11 03:34:37;;;;;;;8.90;4.65;;;14.10;99.90;;;;;;5054088;28;20041;-74
2022/05/11 03:37:11;;;;;;;9.88;4.40;;;14.20;99.90;;;;;;5054228;28;20110;-74
2022/05/11 03:39:37;;;;;;;9.43;4.82;;;14.20;99.90;;;;;;5054126;28;20164;-74
2022/05/11 03:42:07;;;;;;;10.57;5.40;;;14.20;99.90;;;;;;5053999;28;20497;-74
2022/05/11 03:44:33;;;;;;;9.68;4.45;;;14.20;99.90;;;;;;5054129;28;20119;-74
2022/05/11 03:46:59;;;;;;;8.52;4.05;;;14.20;99.90;;;;;;5037180;28;20124;-74
2022/05/11 03:49:25;;;;;;;9.02;4.00;;;14.20;99.90;;;;;;5053655;28;20507;-74
2022/05/11 03:51:50;;;;;;;11.77;4.78;;;14.30;99.90;;;;;;5054097;28;20033;-74
2022/05/11 03:54:17;;;;;;;8.65;4.28;;;14.20;99.90;;;;;;5053690;28;20108;-74
2022/05/11 03:56:42;;;;;;;11.88;4.50;;;14.20;99.90;;;;;;5053694;28;20076;-74
2022/05/11 03:59:08;;;;;;;12.95;4.45;;;14.20;99.90;;;;;;5053936;28;20105;-74
2022/05/11 04:01:34;;;;;;;8.88;4.20;;;14.20;99.90;;;;;;5053363;28;20489;-74
2022/05/11 04:04:00;;;;;;;9.90;4.32;;;14.20;99.90;;;;;;5036980;28;20068;-74
2022/05/11 04:06:26;;;;;;;11.52;4.32;;;14.10;99.90;;;;;;5053662;28;20076;-74
2022/05/11 04:08:51;;;;;;;8.20;3.50;;;14.20;99.90;;;;;;5053832;28;20378;-74
2022/05/11 04:11:17;;;;;;;8.57;4.18;;;14.20;99.90;;;;;;5036939;28;20094;-74
2022/05/11 04:13:42;;;;;;;8.27;3.90;;;14.10;99.90;;;;;;5053070;28;20115;-74
2022/05/11 04:16:08;;;;;;;9.73;4.13;;;14.20;99.90;;;;;;5036699;28;20128;-74
2022/05/11 04:18:37;;;;;;;9.48;4.43;;;14.20;99.90;;;;;;5053547;28;20053;-74
2022/05/11 04:21:03;;;;;;;8.95;3.90;;;14.20;99.90;;;;;;5053284;28;20040;-75
2022/05/11 04:23:29;;;;;;;9.98;3.97;;;14.20;99.90;;;;;;5036590;28;20040;-75
2022/05/11 04:25:55;;;;;;;9.35;4.05;;;14.30;99.90;;;;;;5036388;28;20136;-74
2022/05/11 04:28:22;;;;;;;10.48;4.40;;;14.20;99.90;;;;;;5053118;28;20111;-74
2022/05/11 04:30:48;;;;;;;10.88;4.10;;;14.20;99.90;;;;;;5036488;28;20039;-74
2022/05/11 04:33:14;;;;;;;9.18;4.00;;;14.20;99.90;;;;;;5053074;28;20041;-74
2022/05/11 04:35:39;;;;;;;10.20;4.40;;;14.20;99.90;;;;;;5036225;28;20059;-74
2022/05/11 04:38:07;;;;;;;10.50;3.85;;;14.10;99.90;;;;;;5052958;28;20095;-75
2022/05/11 04:40:34;;;;;;;9.88;4.30;;;14.20;99.90;;;;;;5052892;28;20049;-75
2022/05/11 04:43:07;;;;;;;12.45;4.43;;;14.20;99.90;;;;;;5036258;28;20040;-74
2022/05/11 04:45:35;;;;;;;9.32;4.80;;;14.30;99.90;;;;;;5036088;28;20100;-74
2022/05/11 04:48:00;;;;;;;11.27;4.45;;;14.30;99.90;;;;;;5052731;28;20044;-74
2022/05/11 04:50:26;;;;;;;10.75;4.03;;;14.20;99.90;;;;;;5036094;28;20037;-74
2022/05/11 04:52:52;;;;;;;11.07;4.45;;;14.20;99.90;;;;;;5052555;28;20037;-74
2022/05/11 04:55:17;;;;;;;9.18;4.10;;;14.30;99.90;;;;;;5036181;28;20086;-74
2022/05/11 04:57:43;;;;;;;10.18;4.07;;;14.20;99.90;;;;;;5052837;28;20037;-74
2022/05/11 05:00:12;;;;;;;8.85;4.10;;;14.20;99.90;;;;;;5052662;28;20056;-74
2022/05/11 05:02:38;;;;;;;12.18;4.70;;;14.20;99.90;;;;;;5035913;28;20183;-74
2022/05/11 05:05:05;;;;;;;9.00;4.32;;;14.20;99.90;;;;;;5035730;28;20037;-74
2022/05/11 05:07:35;;;;;;;10.32;4.50;;;14.20;99.90;;;;;;5035718;28;20085;-74
2022/05/11 05:10:05;;;;;;;9.88;4.28;;;14.20;99.90;;;;;;5036012;28;20072;-75
2022/05/11 05:12:30;;;;;;;10.88;3.92;;;14.20;99.90;;;;;;5036034;28;20453;-74
2022/05/11 05:14:56;;;;;;;10.13;4.05;;;14.20;99.90;;;;;;5052144;28;20147;-74
2022/05/11 05:17:22;;;;;;;11.60;4.13;;;14.20;99.90;;;;;;5035647;28;20043;-74
2022/05/11 05:19:49;;;;;;;11.18;4.43;;;14.20;99.90;;;;;;5052060;28;20119;-74
2022/05/11 05:22:15;;;;;;;8.55;4.00;;;14.30;99.90;;;;;;5052188;28;20044;-74
2022/05/11 05:24:41;;;;;;;9.68;4.30;;;14.20;99.90;;;;;;5035189;28;20159;-75
2022/05/11 05:27:07;;;;;;;9.43;4.20;;;14.30;99.90;;;;;;5052032;28;20127;-75
2022/05/11 05:32:16;;;;;;;10.13;4.45;;;14.30;99.90;;;;;;5052035;28;20124;-74
2022/05/11 05:34:46;;;;;;;9.85;4.55;;;14.40;99.90;;;;;;5035332;28;20123;-74
2022/05/11 05:37:13;;;;;;;10.30;3.95;;;14.50;99.90;;;;;;5035641;28;20090;-74
2022/05/11 05:39:39;;;;;;;9.57;4.60;;;14.60;99.90;;;;;;5035383;28;20047;-74
2022/05/11 05:42:06;;;;;;;12.45;4.50;;;14.50;99.90;;;;;;5035277;28;20041;-74
2022/05/11 05:44:32;;;;;;;9.93;4.32;;;14.50;99.90;;;;;;5052044;28;20476;-74
2022/05/11 05:47:07;;;;;;;9.50;4.45;;;14.50;99.90;;;;;;5051661;28;20120;-75
2022/05/11 05:49:33;;;;;;;11.30;5.05;;;14.60;99.90;;;;;;5051902;28;20481;-74
2022/05/11 05:52:01;;;;;;;11.23;4.40;;;14.50;99.90;;;;;;5051875;28;20045;-74
2022/05/11 05:54:30;;;;;;;9.27;4.40;;;14.50;99.90;;;;;;5052093;28;20551;-74
2022/05/11 05:56:56;;;;;;;9.68;4.45;;;14.70;99.90;;;;;;5051692;28;20043;-74
2022/05/11 05:59:22;;;;;;;12.88;6.28;;;14.70;99.90;;;;;;5051750;28;20495;-74
2022/05/11 06:01:47;;;;;;;10.82;4.47;;;14.70;99.90;;;;;;5051473;28;20497;-74
2022/05/11 06:04:13;;;;;;;9.32;4.75;;;14.70;99.90;;;;;;5035123;28;20413;-74
2022/05/11 06:06:38;;;;;;;10.20;5.18;;;14.70;99.90;;;;;;5034949;28;20041;-74
2022/05/11 06:09:04;;;;;;;11.07;4.82;;;14.80;99.90;;;;;;5035289;28;20083;-74
2022/05/11 06:11:30;;;;;;;12.60;4.97;;;14.80;99.90;;;;;;5051892;28;20039;-74
2022/05/11 06:13:56;;;;;;;10.75;4.53;;;14.90;99.90;;;;;;5035251;28;20033;-74
2022/05/11 06:16:23;;;;;;;13.57;4.63;;;14.90;99.90;;;;;;5051487;28;20167;-74
2022/05/11 06:18:48;;;;;;;10.90;4.70;;;14.90;99.90;;;;;;5051921;28;20452;-74
2022/05/11 06:21:16;;;;;;;11.77;4.32;;;14.80;99.90;;;;;;5051624;28;20084;-74
2022/05/11 06:23:42;;;;;;;13.82;6.22;;;14.90;99.90;;;;;;5034937;28;20494;-74
2022/05/11 06:26:08;;;;;;;11.95;5.22;;;14.90;99.90;;;;;;5034812;28;20048;-74
2022/05/11 06:28:36;;;;;;;12.18;5.05;;;14.90;99.90;;;;;;5051419;28;20484;-74
2022/05/11 06:31:02;;;;;;;14.18;5.65;;;15.00;99.90;;;;;;5034952;28;20128;-74
2022/05/11 06:33:28;;;;;;;11.30;5.13;;;14.90;99.90;;;;;;5034867;28;20068;-74
2022/05/11 06:35:54;;;;;;;12.15;5.32;;;15.10;99.90;;;;;;5034639;28;20079;-74
2022/05/11 06:38:20;;;;;;;11.68;5.28;;;15.10;99.90;;;;;;5054704;28;20041;-74
2022/05/11 06:40:45;;;;;;;11.07;4.88;;;15.20;99.90;;;;;;5038538;28;20106;-74
2022/05/11 06:43:12;;;;;;;11.95;5.18;;;15.10;99.90;;;;;;5055403;28;20396;-74
2022/05/11 06:45:38;;;;;;;10.50;5.03;;;15.20;99.90;;;;;;5038359;28;20076;-74
2022/05/11 06:48:04;;;;;;;16.67;5.85;;;15.30;99.90;;;;;;5038435;28;20501;-74
2022/05/11 06:50:30;;;;;;;14.27;5.65;;;15.40;99.90;;;;;;5054958;28;20447;-74
2022/05/11 06:52:56;;;;;;;12.85;6.68;;;15.30;99.90;;;;;;5038564;28;20045;-74
2022/05/11 07:00:51;;;;;;;14.43;6.05;;;15.20;99.90;;;;;;5054616;28;20052;-74
2022/05/11 07:03:17;;;;;;;10.25;5.05;;;15.30;99.90;;;;;;5054950;28;20485;-74
2022/05/11 07:05:44;;;;;;;11.13;5.03;;;15.30;99.90;;;;;;5054814;28;20072;-73
2022/05/11 07:08:09;;;;;;;11.65;5.15;;;15.30;99.90;;;;;;5054885;28;20124;-74
2022/05/11 07:10:42;;;;;;;13.02;5.90;;;15.40;99.90;;;;;;5054505;28;20489;-74
2022/05/11 07:13:09;;;;;;;13.55;5.18;;;15.40;99.90;;;;;;5054873;28;20033;-74
2022/05/11 07:15:34;;;;;;;12.88;5.40;;;15.40;99.90;;;;;;5054463;28;20033;-74
2022/05/11 07:18:03;;;;;;;16.38;5.50;;;15.40;99.90;;;;;;5038117;28;20111;-74
2022/05/11 07:20:34;;;;;;;12.23;5.43;;;15.40;99.90;;;;;;5054499;28;20107;-74
2022/05/11 07:23:02;;;;;;;11.85;4.53;;;15.60;99.90;;;;;;5037837;28;20045;-74
2022/05/11 07:25:29;;;;;;;10.77;5.00;;;15.60;99.90;;;;;;5037696;28;20481;-74
2022/05/11 07:27:57;;;;;;;13.95;4.82;;;15.60;99.90;;;;;;5037883;28;20362;-74
2022/05/11 07:30:32;;;;;;;13.23;4.60;;;15.60;99.90;;;;;;5054485;28;20048;-74
2022/05/11 07:32:59;;;;;;;13.88;4.63;;;15.70;99.90;;;;;;5037842;28;20120;-74
2022/05/11 07:35:25;;;;;;;10.43;4.40;;;15.80;99.90;;;;;;5054191;28;20045;-74
2022/05/11 07:37:52;;;;;;;9.02;4.35;;;15.80;99.90;;;;;;5054323;28;20049;-74
2022/05/11 07:40:19;;;;;;;12.60;5.22;;;15.70;99.90;;;;;;5037513;28;20408;-74
2022/05/11 07:42:45;;;;;;;14.60;4.03;;;15.70;99.90;;;;;;5037393;28;20055;-75
2022/05/11 07:45:12;;;;;;;9.07;4.47;;;15.80;99.90;;;;;;5053910;28;20049;-74
2022/05/11 07:47:39;;;;;;;13.88;4.70;;;15.80;99.90;;;;;;5053287;28;20069;-74
2022/05/11 07:50:06;;;;;;;11.07;4.35;;;15.80;99.90;;;;;;5037575;28;20044;-74
2022/05/11 07:52:32;;;;;;;10.52;3.72;;;15.90;99.90;;;;;;5037229;28;20069;-74
2022/05/11 07:54:57;;;;;;;14.15;4.35;;;16.10;99.90;;;;;;5037413;28;20080;-75
2022/05/11 08:00:09;;;;;;;10.65;3.78;;;15.90;99.90;;;;;;5053471;28;20052;-74
2022/05/11 08:02:36;;;;;;;10.82;4.15;;;16.00;99.90;;;;;;5037290;28;20601;-74
2022/05/11 08:05:05;;;;;;;10.98;3.45;;;16.20;99.90;;;;;;5053639;28;20520;-74
2022/05/11 08:07:55;;;;;;;16.52;4.70;;;16.20;99.90;;;;;;5053356;28;20037;-75
2022/05/11 08:10:30;;;;;;;10.43;3.65;;;16.10;99.90;;;;;;5037237;28;20545;-75
2022/05/11 08:12:57;;;;;;;11.73;3.90;;;16.20;99.90;;;;;;5053478;28;20035;-74
2022/05/11 08:15:27;;;;;;;10.77;3.63;;;16.40;99.90;;;;;;5053405;28;20033;-74
2022/05/11 08:17:52;;;;;;;10.68;3.60;;;16.50;99.90;;;;;;5036635;28;20048;-74
2022/05/11 08:20:28;;;;;;;14.50;3.50;;;16.70;99.90;;;;;;5053300;28;20408;-74
2022/05/11 08:22:55;;;;;;;12.07;3.08;;;16.90;99.90;;;;;;5053371;28;20045;-75
2022/05/11 08:25:25;;;;;;;9.48;2.50;;;16.90;99.90;;;;;;5053394;28;20393;-75
2022/05/11 08:27:52;;;;;;;11.48;2.95;;;16.80;99.90;;;;;;5053125;28;20048;-74
2022/05/11 08:33:24;;;;;;;11.55;2.80;;;17.00;99.90;;;;;;5053148;28;20053;-75
2022/05/11 08:35:52;;;;;;;11.38;2.58;;;17.20;99.90;;;;;;5053097;28;20043;-75
2022/05/11 08:38:19;;;;;;;10.55;2.47;;;17.40;99.90;;;;;;5052879;28;20047;-75
2022/05/11 08:41:13;;;;;;;10.63;2.53;;;17.60;99.90;;;;;;5036576;28;20040;-75
2022/05/11 08:43:38;;;;;;;7.57;2.00;;;17.60;99.90;;;;;;5025264;28;20053;-74
2022/05/11 08:46:26;;;;;;;10.15;2.35;;;17.40;99.90;;;;;;5036098;28;20584;-75
2022/05/11 08:48:59;;;;;;;7.82;1.90;;;17.40;99.90;;;;;;5052734;28;20040;-75
2022/05/11 08:51:39;;;;;;;6.82;1.73;;;17.30;99.90;;;;;;5052652;28;20509;-75
2022/05/11 08:54:15;;;;;;;11.10;2.15;;;17.20;99.90;;;;;;5036304;28;20237;-74
2022/05/11 08:56:44;;;;;;;9.75;2.35;;;17.10;99.90;;;;;;5036031;28;20083;-75
2022/05/11 08:59:26;;;;;;;12.80;2.47;;;17.00;99.90;;;;;;5035309;28;20041;-75
2022/05/11 09:02:05;;;;;;;11.98;2.60;;;17.00;99.90;;;;;;5052499;28;20382;-75
2022/05/11 09:04:42;;;;;;;9.77;2.00;;;17.10;99.90;;;;;;5035929;28;20090;-75
2022/05/11 09:07:09;;;;;;;11.13;2.65;;;17.40;99.90;;;;;;5035631;28;20120;-75
2022/05/11 09:09:35;;;;;;;10.90;2.30;;;17.20;99.90;;;;;;5052396;28;20132;-75
2022/05/11 09:12:01;;;;;;;10.98;2.40;;;17.30;99.90;;;;;;5035811;28;20037;-75
2022/05/11 09:14:42;;;;;;;6.63;1.50;;;17.50;99.90;;;;;;5052289;28;20046;-75
2022/05/11 09:17:38;;;;;;;10.52;2.05;;;17.80;99.90;;;;;;5035847;28;20397;-75
2022/05/11 09:20:06;;;;;;;11.45;2.17;;;17.70;99.90;;;;;;5034341;28;20049;-75
2022/05/11 09:22:34;;;;;;;13.00;2.45;;;17.80;99.90;;;;;;5052049;28;20041;-75
2022/05/11 09:25:04;;;;;;;11.18;2.20;;;17.80;99.90;;;;;;5052413;28;20052;-77
2022/05/11 09:27:31;;;;;;;9.30;2.00;;;17.90;99.90;;;;;;5051935;28;20036;-75
2022/05/11 09:30:15;;;;;;;12.65;2.40;;;18.10;99.90;;;;;;5052068;28;20048;-75
2022/05/11 09:32:44;;;;;;;6.50;1.35;;;18.40;99.90;;;;;;5052040;28;20090;-75
2022/05/11 09:35:45;;;;;;;9.88;2.42;;;18.60;99.90;;;;;;5035465;28;20055;-75
2022/05/11 09:38:17;;;;;;;8.70;1.80;;;18.60;99.90;;;;;;4978682;28;20045;-75
2022/05/11 09:40:55;;;;;;;12.97;3.00;;;18.70;99.90;;;;;;5042043;28;20045;-75
2022/05/11 09:43:32;;;;;;;11.15;1.92;;;18.70;99.90;;;;;;5035647;28;20636;-75
2022/05/11 09:45:58;;;;;;;12.43;2.40;;;18.60;99.90;;;;;;5035526;28;20474;-75
2022/05/11 09:48:31;;;;;;;10.52;2.40;;;18.60;99.90;;;;;;5051725;28;20504;-74
2022/05/11 09:51:17;;;;;;;11.15;2.28;;;18.40;99.90;;;;;;5051898;28;20093;-75
2022/05/11 09:53:53;;;;;;;11.35;2.47;;;18.20;99.90;;;;;;5035293;28;20041;-74
2022/05/11 09:56:32;;;;;;;11.10;2.45;;;18.30;99.90;;;;;;5035211;28;20037;-75
2022/05/11 09:59:18;;;;;;;9.73;2.17;;;18.70;99.90;;;;;;5035406;28;20040;-75
2022/05/11 10:01:44;;;;;;;9.35;2.35;;;18.40;99.90;;;;;;5051646;28;20449;-75
2022/05/11 10:04:11;;;;;;;13.40;2.60;;;18.30;99.90;;;;;;5051789;28;20041;-75
2022/05/11 10:06:49;;;;;;;11.95;2.03;;;18.40;99.90;;;;;;5051672;28;20037;-75
2022/05/11 10:09:17;;;;;;;13.13;2.30;;;18.20;99.90;;;;;;5051645;28;20122;-75
2022/05/11 10:11:48;;;;;;;9.65;2.25;;;18.10;99.90;;;;;;5037659;28;20393;-75
2022/05/11 10:22:57;;;;;;;9.63;1.90;;;18.30;99.90;;;;;;5055582;28;20045;-75
2022/05/11 10:25:40;;;;;;;10.65;2.10;;;18.20;99.90;;;;;;5032799;28;20444;-75
2022/05/11 10:28:15;;;;;;;9.65;2.17;;;18.10;99.90;;;;;;5055418;28;20132;-75
2022/05/11 10:30:54;;;;;;;9.50;1.95;;;18.00;99.90;;;;;;5038779;28;20052;-75
2022/05/11 10:33:53;;;;;;;8.02;1.90;;;17.90;99.90;;;;;;5038758;28;20044;-75
2022/05/11 10:36:44;;;;;;;7.30;1.65;;;17.80;99.90;;;;;;5038925;28;20453;-75
2022/05/11 10:39:10;;;;;;;10.38;2.10;;;18.00;99.90;;;;;;5055199;28;20501;-75
2022/05/11 10:41:55;;;;;;;11.45;2.08;;;18.00;99.90;;;;;;5038649;28;20103;-75
2022/05/11 10:44:42;;;;;;;10.07;2.03;;;17.90;99.90;;;;;;5055555;28;20044;-75
2022/05/11 10:47:14;;;;;;;7.90;1.48;;;17.90;99.90;;;;;;5038540;28;20060;-75
2022/05/11 10:49:49;;;;;;;8.02;1.90;;;18.10;99.90;;;;;;5055046;28;20128;-75
2022/05/11 10:52:49;;;;;;;7.55;1.67;;;18.20;99.90;;;;;;5055105;28;20051;-75
2022/05/11 10:55:42;;;;;;;7.60;1.98;;;18.50;99.90;;;;;;5055227;28;20378;-75
2022/05/11 10:58:30;;;;;;;8.52;1.98;;;18.60;99.50;;;;;;5038268;28;20037;-75
2022/05/11 11:01:05;;;;;;;7.03;1.50;;;18.90;99.70;;;;;;5037973;28;20566;-76
2022/05/11 11:03:33;;;;;;;8.60;1.45;;;19.10;99.50;;;;;;5054770;28;20045;-76
2022/05/11 11:09:45;;;;;;;8.13;1.48;;;19.30;98.60;;;;;;5054562;28;20481;-76
2022/05/11 11:12:28;;;;;;;8.95;1.50;;;19.50;98.00;;;;;;5037959;28;20048;-75
2022/05/11 11:14:57;;;;;;;9.50;1.48;;;19.50;96.10;;;;;;5054599;28;20044;-76
2022/05/11 11:17:26;;;;;;;8.07;1.60;;;19.40;95.60;;;;;;5054532;28;20072;-76
2022/05/11 11:20:00;;;;;;;9.13;1.88;;;19.50;96.60;;;;;;5054664;28;20401;-76
2022/05/11 11:22:26;;;;;;;7.20;1.50;;;19.30;96.00;;;;;;5036983;28;20404;-76
2022/05/11 11:25:10;;;;;;;7.30;1.50;;;19.40;95.80;;;;;;5037758;28;20047;-76
2022/05/11 11:28:03;;;;;;;5.78;1.40;;;19.30;95.20;;;;;;5037725;28;20401;-75
2022/05/11 11:30:29;;;;;;;5.88;1.40;;;19.40;95.60;;;;;;5054149;28;20033;-75
2022/05/11 11:33:23;;;;;;;3.15;0.88;;;19.40;93.90;;;;;;5037525;28;20133;-75
2022/05/11 11:36:01;;;;;;;4.25;1.10;;;19.60;92.90;;;;;;5054249;28;20040;-76
2022/05/11 11:38:38;;;;;;;3.75;0.98;;;19.70;91.20;;;;;;5054093;28;20037;-75
2022/05/11 11:41:19;;;;;;;7.20;1.20;;;19.70;93.20;;;;;;5054358;28;20444;-75
2022/05/11 11:44:26;;;;;;;8.45;1.38;;;19.80;94.80;;;;;;5037725;28;20498;-75
2022/05/11 11:46:52;;;;;;;8.07;1.63;;;19.80;94.70;;;;;;5053917;28;20076;-75
2022/05/11 11:49:21;;;;;;;7.03;1.20;;;19.90;92.70;;;;;;5037506;28;20041;-75
2022/05/11 11:52:05;;;;;;;7.22;1.25;;;19.80;93.10;;;;;;5037176;28;20045;-75
2022/05/11 11:54:51;;;;;;;6.13;1.05;;;19.90;92.50;;;;;;5053902;28;20047;-75
2022/05/11 11:57:22;;;;;;;7.18;1.27;;;20.10;90.90;;;;;;5053505;28;20049;-75
2022/05/11 11:59:54;;;;;;;5.20;1.15;;;20.00;94.90;;;;;;5036873;28;20044;-73
2022/05/11 12:02:19;;;;;;;8.17;1.70;;;20.00;92.50;;;;;;5037138;28;20098;-75
2022/05/11 12:04:55;;;;;;;6.85;1.42;;;19.80;91.80;;;;;;5053750;28;20053;-74
2022/05/11 12:15:45;;;;;;;6.50;1.40;;;19.70;92.00;;;;;;5053450;28;20589;-75
2022/05/11 12:18:29;;;;;;;5.25;1.38;;;19.60;93.10;;;;;;5053417;28;20127;-75
2022/05/11 12:20:55;;;;;;;7.75;1.42;;;19.70;92.70;;;;;;5036604;28;20075;-75
2022/05/11 12:23:33;;;;;;;9.25;1.98;;;19.60;93.50;;;;;;5036951;28;20065;-75
2022/05/11 12:26:10;;;;;;;9.13;1.58;;;19.80;91.90;;;;;;5053171;28;20076;-75
2022/05/11 12:28:42;;;;;;;6.22;1.40;;;20.00;90.70;;;;;;5053240;28;20055;-75
2022/05/11 12:31:08;;;;;;;;;;;19.80;91.30;;;;;;5053363;28;20032;-75
2022/05/11 12:33:39;;;;;;;6.63;1.38;;;19.80;92.90;;;;;;5053068;28;19985;-74
2022/05/11 12:36:06;;;;;;;8.13;2.03;;;19.90;93.00;;;;;;5036522;28;20079;-75
2022/05/11 12:38:34;;;;;;;6.65;1.40;;;19.80;93.60;;;;;;5036418;28;20037;-75
2022/05/11 12:41:08;;;;;;;7.25;1.88;;;19.80;93.20;;;;;;5053101;28;20041;-75
2022/05/11 12:43:36;;;;;;;9.57;1.70;;;19.90;91.00;;;;;;5036507;28;20101;-75
2022/05/11 12:46:06;;;;;;;11.20;1.70;;;19.80;94.50;;;;;;5052600;28;20037;-75
2022/05/11 12:48:41;;;;;;;12.00;1.73;;;19.80;95.30;;;;;;5053075;28;20037;-76
2022/05/11 12:51:14;;;;;;;9.63;1.80;;;20.00;92.90;;;;;;5052672;28;20122;-75
2022/05/11 12:53:49;;;;;;;9.57;1.60;;;20.10;91.30;;;;;;5052711;28;20033;-76
2022/05/11 12:56:21;;;;;;;5.10;1.40;;;20.20;91.80;;;;;;5052715;28;20045;-75
2022/05/11 12:58:57;;;;;;;7.60;1.73;;;20.20;90.70;;;;;;5036053;28;20045;-75
2022/05/11 13:01:26;;;;;;;9.05;1.67;;;20.10;89.20;;;;;;5052374;28;20056;-75
2022/05/11 13:03:54;;;;;;;10.65;1.90;;;20.20;89.60;;;;;;5052869;28;20440;-76
2022/05/11 13:06:23;;;;;;;8.27;1.75;;;20.20;91.60;;;;;;5035829;28;20501;-75
2022/05/11 13:08:52;;;;;;;10.05;1.67;;;20.10;91.40;;;;;;5035831;28;20052;-75
2022/05/11 13:11:21;;;;;;;11.40;1.77;;;20.10;92.10;;;;;;5035637;28;20548;-75
2022/05/11 13:13:51;;;;;;;12.20;2.50;;;20.00;90.80;;;;;;5052621;28;20045;-75
2022/05/11 13:16:24;;;;;;;11.10;1.88;;;19.40;90.40;;;;;;5052572;28;20374;-75
2022/05/11 13:18:50;;;;;;;10.30;2.13;;;19.60;92.70;;;;;;5035680;28;20098;-75
2022/05/11 13:21:31;;;;;;;14.18;2.58;;;19.60;94.50;;;;;;5052023;28;20041;-75
2022/05/11 13:23:58;;;;;;;9.53;2.03;;;19.50;94.90;;;;;;5052357;28;20044;-75
2022/05/11 13:26:32;;;;;;;8.75;2.10;;;19.40;94.60;;;;;;5052122;28;20099;-75
2022/05/11 13:29:00;;;;;;;9.70;1.60;;;19.40;95.30;;;;;;5035652;28;20032;-75
2022/05/11 13:31:31;;;;;;;9.43;2.30;;;19.50;96.30;;;;;;5051962;28;20129;-75
2022/05/11 13:33:58;;;;;;;9.63;2.17;;;19.50;95.90;;;;;;5035741;28;20378;-75
2022/05/11 13:36:32;;;;;;;8.07;1.85;;;19.40;95.00;;;;;;5052058;28;20041;-75
2022/05/11 13:39:02;;;;;;;9.68;1.70;;;19.50;95.10;;;;;;5035644;28;20075;-75
2022/05/11 13:41:40;;;;;;;8.73;1.67;;;19.40;95.20;;;;;;5035571;28;20471;-76